Time;durP1;ratioP1;P1;durP2;ratioP2;P2;SDS_P1;SDS_P2;PMS_P1;PMS_P2;Temp;Humidity;BMP_temperature;BMP_pressure;BME280_temperature;BME280_humidity;BME280_pressure;Samples;Min_cycle;Max_cycle;Signal;HPM_P1;HPM_P2
2021/08/19 00:01:21;;;;;;;;;2.00;2.00;;;;;21.67;56.86;101326.44;5002236;28;46259;-78
2021/08/19 00:03:47;;;;;;;;;2.00;2.00;;;;;21.77;57.09;101349.31;5001707;28;45510;-78
2021/08/19 00:06:13;;;;;;;;;2.00;2.00;;;;;21.65;57.29;101330.16;5000906;28;45308;-78
2021/08/19 00:08:40;;;;;;;;;2.00;2.00;;;;;21.70;57.21;101343.44;5001881;28;45260;-78
2021/08/19 00:11:06;;;;;;;;;3.00;3.00;;;;;21.69;57.23;101344.38;5000895;28;47366;-79
2021/08/19 00:13:32;;;;;;;;;1.50;1.50;;;;;21.53;57.08;101321.97;5000705;28;45189;-78
2021/08/19 00:15:59;;;;;;;;;1.00;1.00;;;;;21.63;57.20;101342.09;5002258;28;45224;-79
2021/08/19 00:18:24;;;;;;;;;3.00;2.75;;;;;21.60;56.86;101336.88;5001548;28;45334;-77
2021/08/19 00:20:49;;;;;;;;;2.00;2.00;;;;;21.50;57.93;101327.63;5001755;28;46029;-78
2021/08/19 00:23:15;;;;;;;;;2.50;1.25;;;;;21.55;57.73;101333.59;5001826;28;45260;-78
2021/08/19 00:25:41;;;;;;;;;3.00;3.00;;;;;21.54;57.28;101330.03;5001918;28;45252;-78
2021/08/19 00:28:06;;;;;;;;;4.00;2.00;;;;;21.50;57.66;101323.09;5001602;28;45552;-77
2021/08/19 00:30:32;;;;;;;;;3.00;2.00;;;;;21.52;57.55;101322.94;5001811;28;46361;-79
2021/08/19 00:32:57;;;;;;;;;1.25;1.25;;;;;21.52;57.26;101320.22;5001467;28;45240;-78
2021/08/19 00:35:22;;;;;;;;;3.00;3.00;;;;;21.48;57.38;101306.00;5001661;28;45743;-78
2021/08/19 00:37:48;;;;;;;;;2.50;2.25;;;;;21.52;57.98;101315.69;5001590;28;45417;-78
2021/08/19 00:40:14;;;;;;;;;2.25;2.25;;;;;21.42;57.44;101295.53;5001447;28;46652;-78
2021/08/19 00:42:40;;;;;;;;;2.00;2.00;;;;;21.41;57.61;101288.38;5001351;28;45866;-78
2021/08/19 00:45:07;;;;;;;;;2.25;2.25;;;;;21.49;57.46;101307.75;5001555;28;45346;-78
2021/08/19 00:47:33;;;;;;;;;1.50;1.50;;;;;21.48;57.64;101307.84;5000387;28;45297;-78
2021/08/19 00:50:01;;;;;;;;;5.50;3.75;;;;;21.52;57.76;101310.25;5001126;28;45228;-78
2021/08/19 00:52:27;;;;;;;;;2.00;1.50;;;;;21.53;57.84;101311.97;5000097;28;45321;-78
2021/08/19 00:54:54;;;;;;;;;1.00;1.00;;;;;21.47;57.39;101298.84;5001649;28;45339;-78
2021/08/19 00:57:20;;;;;;;;;2.00;2.00;;;;;21.52;57.83;101306.66;5001123;28;45360;-77
2021/08/19 00:59:47;;;;;;;;;1.25;1.25;;;;;21.42;57.18;101290.97;4999991;28;47084;-77
2021/08/19 01:02:13;;;;;;;;;2.00;2.00;;;;;21.50;57.10;101314.94;5001064;28;45465;-79
2021/08/19 01:04:40;;;;;;;;;1.00;1.00;;;;;21.42;57.56;101304.56;5001123;28;45243;-78
2021/08/19 01:07:07;;;;;;;;;2.75;2.75;;;;;21.48;56.95;101311.44;5000968;28;45323;-78
2021/08/19 01:09:34;;;;;;;;;2.00;2.00;;;;;21.43;56.91;101314.47;5001275;28;45432;-78
2021/08/19 01:12:00;;;;;;;;;1.00;1.00;;;;;21.36;57.23;101293.25;5000946;28;45470;-78
2021/08/19 01:14:26;;;;;;;;;2.00;2.00;;;;;21.40;57.34;101306.50;5001164;28;45446;-77
2021/08/19 01:16:51;;;;;;;;;1.50;1.50;;;;;21.38;57.21;101294.00;5001092;28;45253;-78
2021/08/19 01:19:19;;;;;;;;;2.00;2.00;;;;;21.44;57.02;101307.16;5000602;28;46665;-79
2021/08/19 01:21:46;;;;;;;;;3.00;3.00;;;;;21.43;56.84;101302.69;4999625;28;46422;-79
2021/08/19 01:24:13;;;;;;;;;1.00;1.00;;;;;21.44;57.25;101299.88;5000848;28;45371;-79
2021/08/19 01:26:40;;;;;;;;;2.00;2.00;;;;;21.43;57.21;101300.88;5000546;28;45316;-78
2021/08/19 01:29:06;;;;;;;;;1.75;1.75;;;;;21.42;57.31;101299.13;5000856;28;45442;-78
2021/08/19 01:31:33;;;;;;;;;2.00;2.00;;;;;21.39;57.20;101293.91;4999373;28;45623;-79
2021/08/19 01:33:58;;;;;;;;;1.75;1.00;;;;;21.40;57.11;101287.50;4999396;28;45321;-77
2021/08/19 01:36:23;;;;;;;;;2.00;2.00;;;;;21.37;57.00;101284.13;5000664;28;45226;-78
2021/08/19 01:38:50;;;;;;;;;1.00;1.00;;;;;21.37;57.17;101282.28;5000725;28;46188;-78
2021/08/19 01:41:16;;;;;;;;;2.00;2.00;;;;;21.39;56.56;101285.75;5000556;28;45232;-77
2021/08/19 01:43:44;;;;;;;;;3.00;3.00;;;;;21.36;56.82;101282.38;5000765;28;45494;-79
2021/08/19 01:46:11;;;;;;;;;1.00;1.00;;;;;21.27;56.86;101275.75;5000508;28;45385;-76
2021/08/19 01:48:47;;;;;;;;;2.00;2.00;;;;;21.20;56.85;101272.59;4998737;28;46063;-77
2021/08/19 01:51:14;;;;;;;;;2.75;2.75;;;;;21.30;56.49;101283.69;5000605;28;45138;-77
2021/08/19 01:53:44;;;;;;;;;2.00;2.00;;;;;21.29;56.66;101279.22;5000579;28;45155;-76
2021/08/19 01:56:09;;;;;;;;;1.75;1.75;;;;;21.19;56.82;101268.13;5000371;28;45450;-76
2021/08/19 01:58:36;;;;;;;;;2.50;2.50;;;;;21.24;56.85;101275.97;4998383;28;46511;-76
2021/08/19 02:01:01;;;;;;;;;2.25;2.25;;;;;21.27;56.83;101279.31;5000448;28;45382;-76
2021/08/19 02:03:27;;;;;;;;;2.00;2.00;;;;;21.24;56.54;101275.97;4998753;28;45306;-75
2021/08/19 02:05:53;;;;;;;;;2.25;2.25;;;;;21.25;56.52;101284.00;5000624;28;45312;-76
2021/08/19 02:08:19;;;;;;;;;1.25;1.25;;;;;21.19;56.92;101268.13;5000027;28;46602;-75
2021/08/19 02:10:45;;;;;;;;;3.00;3.00;;;;;21.19;56.55;101267.25;5000296;28;45211;-75
2021/08/19 02:13:12;;;;;;;;;1.25;1.25;;;;;21.25;56.40;101281.28;5000434;28;45177;-76
2021/08/19 02:15:37;;;;;;;;;2.50;2.50;;;;;21.20;56.69;101274.41;5000358;28;45465;-77
2021/08/19 02:18:02;;;;;;;;;2.00;1.00;;;;;21.21;56.44;101287.88;4999957;28;45475;-76
2021/08/19 02:20:28;;;;;;;;;2.25;2.25;;;;;21.17;56.25;101280.94;5000073;28;45307;-75
2021/08/19 02:23:01;;;;;;;;;1.00;1.00;;;;;21.11;56.02;101275.91;5000079;28;45450;-75
2021/08/19 02:25:27;;;;;;;;;1.25;1.00;;;;;21.16;56.13;101283.75;5000080;28;45412;-77
2021/08/19 02:27:53;;;;;;;;;1.50;1.50;;;;;21.09;56.60;101267.88;4999779;28;45459;-76
2021/08/19 02:30:19;;;;;;;;;1.00;1.00;;;;;21.04;56.33;101271.91;4999995;28;45363;-75
2021/08/19 02:32:45;;;;;;;;;2.00;2.00;;;;;20.99;56.66;101271.34;4999930;28;45319;-76
2021/08/19 02:35:11;;;;;;;;;1.00;1.00;;;;;21.00;56.32;101259.50;4999808;28;45509;-74
2021/08/19 02:37:36;;;;;;;;;1.50;1.50;;;;;21.09;56.54;101272.44;4998437;28;47126;-75
2021/08/19 02:40:02;;;;;;;;;1.00;1.00;;;;;21.07;56.62;101280.69;5000109;28;45185;-77
2021/08/19 02:42:28;;;;;;;;;2.00;2.00;;;;;;;;4999766;28;45725;-75
2021/08/19 02:44:53;;;;;;;;;1.00;1.00;;;;;20.94;56.37;101257.22;5000083;28;45666;-77
2021/08/19 02:47:18;;;;;;;;;3.00;2.00;;;;;20.98;56.42;101264.16;4999349;28;45276;-75
2021/08/19 02:49:44;;;;;;;;;2.25;1.00;;;;;20.96;57.01;101258.84;4999585;28;45233;-76
2021/08/19 02:52:10;;;;;;;;;1.00;1.00;;;;;20.93;56.84;101253.63;4998565;28;45250;-76
2021/08/19 02:54:35;;;;;;;;;2.25;2.00;;;;;21.00;56.78;101256.78;4999816;28;45309;-76
2021/08/19 02:57:00;;;;;;;;;1.50;1.50;;;;;20.97;56.62;101260.59;4999376;28;45411;-75
2021/08/19 02:59:26;;;;;;;;;0.75;0.75;;;;;20.91;56.69;101252.84;4999822;28;45180;-76
2021/08/19 03:01:51;;;;;;;;;2.00;2.00;;;;;20.89;56.39;101247.53;4999680;28;45291;-76
2021/08/19 03:04:17;;;;;;;;;2.75;2.75;;;;;20.95;56.57;101251.69;4999337;28;45466;-75
2021/08/19 03:06:42;;;;;;;;;3.00;1.75;;;;;20.97;56.54;101260.59;4999266;28;45417;-76
2021/08/19 03:09:07;;;;;;;;;2.00;1.25;;;;;20.98;56.23;101253.31;4998704;28;45252;-75
2021/08/19 03:11:33;;;;;;;;;1.75;1.75;;;;;20.91;56.44;101242.91;5001598;28;45393;-75
2021/08/19 03:13:58;;;;;;;;;2.00;2.00;;;;;20.97;56.73;101248.88;5003221;28;45471;-76
2021/08/19 03:16:24;;;;;;;;;2.50;2.50;;;;;20.93;56.74;101242.75;5002682;28;46362;-76
2021/08/19 03:18:49;;;;;;;;;2.00;1.00;;;;;20.97;56.86;101243.44;5002823;28;45846;-75
2021/08/19 03:21:17;;;;;;;;;1.75;1.75;;;;;20.89;56.82;101235.81;5002898;28;45296;-75
2021/08/19 03:23:42;;;;;;;;;1.25;1.25;;;;;20.85;56.70;101228.88;5002797;28;45401;-75
2021/08/19 03:26:08;;;;;;;;;1.50;1.25;;;;;20.99;56.62;101252.34;5002529;28;46140;-76
2021/08/19 03:28:34;;;;;;;;;1.75;1.00;;;;;20.99;56.32;101255.91;5002622;28;45320;-76
2021/08/19 03:31:00;;;;;;;;;1.75;1.75;;;;;20.99;56.63;101257.78;5002690;28;45332;-75
2021/08/19 03:33:26;;;;;;;;;1.25;1.25;;;;;20.94;56.81;101244.50;5001150;28;45738;-76
2021/08/19 03:35:51;;;;;;;;;1.75;1.75;;;;;20.99;56.30;101246.91;5002300;28;45386;-74
2021/08/19 03:38:17;;;;;;;;;1.75;1.75;;;;;20.91;56.31;101228.44;5002604;28;45299;-76
2021/08/19 03:40:42;;;;;;;;;1.00;1.00;;;;;21.00;56.77;101245.94;5002674;28;45379;-75
2021/08/19 03:43:07;;;;;;;;;3.25;2.25;;;;;20.89;56.84;101233.97;5002538;28;45415;-76
2021/08/19 03:45:33;;;;;;;;;3.00;2.00;;;;;20.98;56.49;101246.06;5000899;28;47931;-75
2021/08/19 03:47:58;;;;;;;;;2.00;2.00;;;;;20.89;56.87;101222.25;5000725;28;46355;-76
2021/08/19 03:50:23;;;;;;;;;1.00;1.00;;;;;20.96;56.42;101242.56;5002550;28;45439;-75
2021/08/19 03:52:50;;;;;;;;;1.75;1.75;;;;;20.96;56.39;101234.41;5002308;28;45363;-77
2021/08/19 03:55:15;;;;;;;;;1.00;1.00;;;;;20.97;56.41;101230.75;5002305;28;45930;-75
2021/08/19 03:57:41;;;;;;;;;1.00;1.00;;;;;20.97;57.04;101235.31;5001946;28;45311;-76
2021/08/19 04:00:07;;;;;;;;;5.00;5.00;;;;;20.98;56.97;101237.91;5002273;28;45355;-75
2021/08/19 04:02:33;;;;;;;;;3.75;3.75;;;;;20.98;56.31;101240.63;5002040;28;45213;-76
2021/08/19 04:04:59;;;;;;;;;2.00;2.00;;;;;20.94;56.62;101225.50;5001835;28;45450;-75
2021/08/19 04:07:24;;;;;;;;;2.25;2.25;;;;;20.97;56.78;101230.75;5001938;28;45316;-75
2021/08/19 04:09:49;;;;;;;;;2.25;2.25;;;;;20.97;56.96;101241.59;5002352;28;45289;-75
2021/08/19 04:12:15;;;;;;;;;3.00;3.00;;;;;20.82;56.37;101221.81;5001994;28;45216;-77
2021/08/19 04:14:40;;;;;;;;;1.25;1.25;;;;;20.97;56.99;101238.88;5001914;28;45599;-78
2021/08/19 04:17:05;;;;;;;;;3.50;2.00;;;;;20.78;56.69;101209.44;5001970;28;45221;-76
2021/08/19 04:19:31;;;;;;;;;2.00;2.00;;;;;20.96;56.81;101239.84;5001683;28;45244;-77
2021/08/19 04:21:56;;;;;;;;;2.00;2.00;;;;;20.97;56.64;101243.44;5000466;28;45449;-77
2021/08/19 04:24:21;;;;;;;;;2.50;2.50;;;;;20.96;56.89;101244.41;5000366;28;46033;-77
2021/08/19 04:26:47;;;;;;;;;3.25;3.25;;;;;20.95;56.77;101237.22;5001853;28;45406;-78
2021/08/19 04:29:12;;;;;;;;;2.75;2.75;;;;;20.95;56.49;101237.22;5001855;28;45357;-78
2021/08/19 04:31:38;;;;;;;;;3.50;3.00;;;;;20.81;56.91;101221.91;5001723;28;45604;-77
2021/08/19 04:34:03;;;;;;;;;3.00;2.00;;;;;20.82;56.82;101235.38;5001419;28;46290;-78
2021/08/19 04:36:32;;;;;;;;;3.50;3.00;;;;;20.89;56.88;101233.97;5000424;28;45307;-78
2021/08/19 04:38:58;;;;;;;;;2.50;2.50;;;;;20.83;56.61;101228.09;5001928;28;45323;-78
2021/08/19 04:41:24;;;;;;;;;3.00;3.00;;;;;20.79;56.95;101219.28;5001852;28;45411;-77
2021/08/19 04:43:49;;;;;;;;;4.50;3.50;;;;;20.86;57.09;101233.31;5001243;28;46116;-78
2021/08/19 04:46:15;;;;;;;;;1.00;1.00;;;;;20.81;56.92;101224.63;5001861;28;45225;-79
2021/08/19 04:48:40;;;;;;;;;3.75;3.50;;;;;20.81;56.78;101225.47;5001273;28;45356;-77
2021/08/19 04:51:05;;;;;;;;;2.25;2.00;;;;;20.87;56.86;101235.06;5001496;28;45361;-79
2021/08/19 04:53:31;;;;;;;;;3.25;2.00;;;;;20.87;56.59;101246.78;5001248;28;46124;-77
2021/08/19 04:55:56;;;;;;;;;2.25;2.25;;;;;20.81;56.56;101240.88;4999780;28;45312;-78
2021/08/19 04:58:22;;;;;;;;;4.50;2.50;;;;;20.86;57.09;101255.00;5001357;28;45381;-77
2021/08/19 05:00:47;;;;;;;;;2.00;2.00;;;;;20.86;57.02;101255.00;5000014;28;45339;-78
2021/08/19 05:03:12;;;;;;;;;4.00;3.00;;;;;20.84;57.30;101252.41;5000770;28;45412;-77
2021/08/19 05:05:38;;;;;;;;;4.25;2.25;;;;;20.79;57.22;101254.56;4999857;28;45725;-77
2021/08/19 05:08:03;;;;;;;;;2.25;2.25;;;;;20.85;57.00;101256.00;5001087;28;45328;-77
2021/08/19 05:10:29;;;;;;;;;3.00;3.00;;;;;20.81;57.11;101249.03;5001024;28;45359;-77
2021/08/19 05:12:54;;;;;;;;;1.00;1.00;;;;;20.85;56.80;101264.16;5000986;28;45347;-78
2021/08/19 05:15:20;;;;;;;;;3.50;2.50;;;;;20.71;57.16;101238.81;5000990;28;45376;-77
2021/08/19 05:17:46;;;;;;;;;2.00;2.00;;;;;20.81;56.64;101263.47;5001135;28;45521;-77
2021/08/19 05:20:12;;;;;;;;;3.75;2.00;;;;;20.77;57.28;101255.66;5000618;28;45487;-77
2021/08/19 05:22:37;;;;;;;;;5.25;4.00;;;;;20.73;57.04;101254.97;5000933;28;45352;-77
2021/08/19 05:25:03;;;;;;;;;5.00;3.00;;;;;20.82;56.89;101264.34;4999487;28;45253;-77
2021/08/19 05:27:29;;;;;;;;;4.50;3.25;;;;;20.71;56.77;101249.66;5000780;28;45264;-78
2021/08/19 05:29:54;;;;;;;;;4.25;4.25;;;;;20.69;57.09;101243.44;5000815;28;45437;-77
2021/08/19 05:32:19;;;;;;;;;3.50;3.00;;;;;20.83;56.68;101261.53;4999989;28;46092;-78
2021/08/19 05:34:45;;;;;;;;;2.75;2.75;;;;;20.71;57.04;101252.38;5000454;28;45268;-78
2021/08/19 05:37:10;;;;;;;;;3.00;3.00;;;;;20.62;57.10;101238.53;5000883;28;45197;-78
2021/08/19 05:39:35;;;;;;;;;3.25;3.25;;;;;20.81;56.90;101266.16;5000757;28;45332;-77
2021/08/19 05:42:01;;;;;;;;;3.50;3.50;;;;;20.76;57.03;101268.31;4999197;28;48011;-78
2021/08/19 05:44:26;;;;;;;;;4.25;4.25;;;;;20.72;56.81;101264.94;5000339;28;45333;-77
2021/08/19 05:46:52;;;;;;;;;4.00;4.00;;;;;20.80;57.33;101277.13;5000761;28;45494;-77
2021/08/19 05:49:17;;;;;;;;;4.50;3.25;;;;;20.75;56.57;101268.44;5000045;28;45331;-77
2021/08/19 05:51:43;;;;;;;;;3.50;3.50;;;;;20.77;57.03;101275.50;5000602;28;45356;-78
2021/08/19 05:54:08;;;;;;;;;4.00;4.00;;;;;20.75;56.75;101269.31;5000664;28;45387;-78
2021/08/19 05:56:33;;;;;;;;;3.75;2.50;;;;;20.72;56.70;101264.94;5000514;28;45328;-78
2021/08/19 05:58:59;;;;;;;;;5.00;4.00;;;;;20.79;57.28;101276.25;5000302;28;45545;-78
2021/08/19 06:01:24;;;;;;;;;2.75;2.75;;;;;20.79;56.57;101276.25;5000496;28;45993;-78
2021/08/19 06:03:49;;;;;;;;;2.00;2.00;;;;;20.79;56.76;101269.97;4999922;28;45466;-78
2021/08/19 06:06:17;;;;;;;;;1.75;0.50;;;;;20.70;57.11;101249.75;5000484;28;45483;-77
2021/08/19 06:08:43;;;;;;;;;4.00;4.00;;;;;20.80;57.25;101272.59;5000220;28;45404;-77
2021/08/19 06:11:08;;;;;;;;;3.25;3.00;;;;;20.62;57.22;101247.53;5000266;28;46083;-76
2021/08/19 06:13:33;;;;;;;;;3.00;3.00;;;;;20.71;57.45;101265.06;4998862;28;45162;-77
2021/08/19 06:15:59;;;;;;;;;4.75;4.00;;;;;20.70;57.17;101266.03;5000385;28;45229;-78
2021/08/19 06:18:24;;;;;;;;;4.50;4.50;;;;;20.74;57.25;101270.28;4999804;28;45296;-78
2021/08/19 06:20:51;;;;;;;;;6.00;6.00;;;;;20.74;56.88;101270.28;5000208;28;45244;-77
2021/08/19 06:23:16;;;;;;;;;5.00;4.00;;;;;20.67;57.06;101256.25;5000015;28;45443;-78
2021/08/19 06:25:42;;;;;;;;;3.50;3.50;;;;;20.75;56.84;101273.84;5000272;28;45241;-77
2021/08/19 06:28:08;;;;;;;;;3.50;3.50;;;;;20.76;57.23;101272.88;4999787;28;45364;-78
2021/08/19 06:30:34;;;;;;;;;5.00;4.00;;;;;20.75;57.62;101272.03;4999973;28;46642;-77
2021/08/19 06:33:00;;;;;;;;;5.00;4.00;;;;;20.76;57.43;101275.59;4999391;28;45319;-78
2021/08/19 06:35:26;;;;;;;;;5.00;4.50;;;;;20.78;57.24;101271.81;5000264;28;45323;-78
2021/08/19 06:37:51;;;;;;;;;3.50;3.50;;;;;20.69;57.09;101253.44;4999898;28;45295;-77
2021/08/19 06:40:16;;;;;;;;;5.00;5.00;;;;;20.78;57.01;101270.94;5000029;28;46099;-78
2021/08/19 06:42:42;;;;;;;;;6.00;5.25;;;;;20.72;57.42;101264.94;5000019;28;45173;-78
2021/08/19 06:45:08;;;;;;;;;5.00;5.00;;;;;20.59;56.90;101245.00;5001915;28;45337;-77
2021/08/19 06:47:33;;;;;;;;;4.50;4.00;;;;;20.71;57.22;101267.75;5002963;28;45235;-78
2021/08/19 06:49:59;;;;;;;;;5.50;4.50;;;;;20.64;57.20;101250.16;5001649;28;45999;-77
2021/08/19 06:52:24;;;;;;;;;4.00;4.00;;;;;20.62;57.13;101250.22;5003076;28;45331;-77
2021/08/19 06:54:49;;;;;;;;;3.25;3.25;;;;;20.67;56.75;101252.69;5003432;28;45271;-78
2021/08/19 06:57:15;;;;;;;;;3.00;3.00;;;;;20.63;57.34;101251.13;5002710;28;45462;-77
2021/08/19 06:59:40;;;;;;;;;5.50;3.00;;;;;20.68;57.26;101263.44;5003510;28;46343;-78
2021/08/19 07:02:05;;;;;;;;;5.50;5.00;;;;;20.70;57.24;101266.91;5002822;28;45231;-77
2021/08/19 07:04:31;;;;;;;;;4.75;4.75;;;;;20.71;57.21;101268.66;5001686;28;45423;-77
2021/08/19 07:06:56;;;;;;;;;4.75;4.25;;;;;20.71;57.13;101276.78;5002748;28;45155;-78
2021/08/19 07:09:21;;;;;;;;;4.25;4.25;;;;;20.74;56.83;101278.41;5002915;28;46176;-76
2021/08/19 07:11:47;;;;;;;;;4.75;4.00;;;;;20.68;57.36;101265.25;5003020;28;45429;-79
2021/08/19 07:14:12;;;;;;;;;8.00;6.00;;;;;20.66;57.29;101265.34;5003080;28;45335;-77
2021/08/19 07:16:38;;;;;;;;;6.75;5.75;;;;;20.72;57.38;101274.94;5001487;28;45427;-77
2021/08/19 07:19:05;;;;;;;;;2.75;2.75;;;;;20.68;57.39;101270.69;5002618;28;45392;-77
2021/08/19 07:21:30;;;;;;;;;4.25;4.25;;;;;20.66;57.39;101275.34;5002685;28;45415;-78
2021/08/19 07:23:55;;;;;;;;;5.75;4.75;;;;;20.63;57.23;101265.59;5003020;28;45303;-78
2021/08/19 07:26:22;;;;;;;;;4.50;4.50;;;;;20.62;57.35;101263.78;5002655;28;45527;-78
2021/08/19 07:28:49;;;;;;;;;4.25;4.25;;;;;20.69;57.11;101273.28;5002428;28;46693;-77
2021/08/19 07:31:15;;;;;;;;;4.75;3.75;;;;;20.68;57.08;101259.81;5002539;28;45240;-76
2021/08/19 07:33:40;;;;;;;;;5.50;4.75;;;;;20.67;57.02;101264.38;5002479;28;45324;-78
2021/08/19 07:36:05;;;;;;;;;4.00;4.00;;;;;20.62;57.07;101261.09;5002556;28;45280;-77
2021/08/19 07:38:31;;;;;;;;;5.25;4.75;;;;;20.59;57.38;101253.16;5001486;28;45280;-78
2021/08/19 07:40:56;;;;;;;;;3.25;3.25;;;;;20.68;57.68;101260.72;5002296;28;45314;-76
2021/08/19 07:43:21;;;;;;;;;6.00;5.25;;;;;20.69;57.75;101259.72;5002668;28;45130;-78
2021/08/19 07:45:47;;;;;;;;;5.25;5.25;;;;;20.65;57.35;101251.91;5002244;28;45438;-77
2021/08/19 07:48:14;;;;;;;;;4.25;4.00;;;;;20.63;57.06;101252.03;5002181;28;46260;-77
2021/08/19 07:50:41;;;;;;;;;5.50;5.25;;;;;20.68;57.15;101258.00;5002173;28;45279;-78
2021/08/19 07:53:06;;;;;;;;;5.75;4.50;;;;;20.75;57.08;101265.72;5002602;28;45328;-77
2021/08/19 07:55:32;;;;;;;;;5.25;5.25;;;;;20.75;56.92;101265.72;5001599;28;45750;-77
2021/08/19 07:57:58;;;;;;;;;5.00;5.00;;;;;20.66;56.75;101254.50;5002353;28;45241;-77
2021/08/19 08:00:30;;;;;;;;;5.00;5.00;;;;;20.64;57.14;101242.03;5002259;28;45224;-77
2021/08/19 08:02:56;;;;;;;;;5.00;5.00;;;;;20.72;56.76;101264.94;5001867;28;45454;-77
2021/08/19 08:05:23;;;;;;;;;5.25;5.25;;;;;20.75;56.80;101279.28;5001916;28;45325;-78
2021/08/19 08:07:49;;;;;;;;;4.00;4.00;;;;;20.52;56.83;101227.41;5001894;28;46331;-77
2021/08/19 08:10:15;;;;;;;;;6.50;5.75;;;;;20.66;56.82;101254.50;5001756;28;45240;-77
2021/08/19 08:12:40;;;;;;;;;5.00;5.00;;;;;20.65;57.00;101254.63;5002184;28;45415;-78
2021/08/19 08:15:07;;;;;;;;;6.50;6.00;;;;;20.74;57.07;101264.84;5001652;28;45307;-77
2021/08/19 08:17:34;;;;;;;;;5.00;4.50;;;;;20.80;57.36;101268.97;5001573;28;45399;-78
2021/08/19 08:19:59;;;;;;;;;6.25;6.25;;;;;20.78;57.33;101273.66;5001523;28;45449;-78
2021/08/19 08:22:24;;;;;;;;;5.00;5.00;;;;;20.75;57.34;101273.84;5002009;28;45328;-77
2021/08/19 08:24:50;;;;;;;;;7.50;5.25;;;;;20.73;57.38;101265.81;5001664;28;45454;-76
2021/08/19 08:27:15;;;;;;;;;6.00;6.00;;;;;20.77;57.46;101271.94;5000172;28;47352;-78
2021/08/19 08:29:41;;;;;;;;;6.75;6.00;;;;;20.77;57.05;101271.94;5001604;28;45304;-78
2021/08/19 08:32:07;;;;;;;;;7.75;6.00;;;;;20.81;57.24;101279.72;5001916;28;45308;-77
2021/08/19 08:34:34;;;;;;;;;3.25;3.25;;;;;20.83;57.25;101276.91;5001248;28;45224;-77
2021/08/19 08:36:59;;;;;;;;;6.50;6.50;;;;;20.79;57.21;101278.13;5000288;28;47548;-78
2021/08/19 08:39:25;;;;;;;;;7.25;5.50;;;;;20.72;57.00;101262.25;5001321;28;45339;-77
2021/08/19 08:41:52;;;;;;;;;5.25;5.00;;;;;20.87;57.34;101284.75;5001695;28;45328;-77
2021/08/19 08:44:17;;;;;;;;;6.50;5.25;;;;;20.88;56.79;101280.19;5001517;28;45543;-78
2021/08/19 08:46:45;;;;;;;;;5.25;5.25;;;;;20.87;57.11;101276.63;5001532;28;45863;-78
2021/08/19 08:49:11;;;;;;;;;5.50;5.50;;;;;20.83;57.02;101276.91;5000983;28;45251;-77
2021/08/19 08:51:37;;;;;;;;;6.00;5.50;;;;;20.90;56.94;101289.13;5001836;28;45283;-77
2021/08/19 08:54:03;;;;;;;;;6.25;6.00;;;;;20.85;56.75;101280.44;4999909;28;45241;-77
2021/08/19 08:56:28;;;;;;;;;5.50;4.00;;;;;20.87;56.56;101289.31;5001325;28;45670;-77
2021/08/19 08:58:55;;;;;;;;;5.50;5.00;;;;;20.85;56.64;101289.44;5001156;28;45224;-78
2021/08/19 09:01:21;;;;;;;;;7.75;5.75;;;;;20.87;56.29;101287.47;5001596;28;45277;-78
2021/08/19 09:03:46;;;;;;;;;5.00;5.00;;;;;20.88;56.62;101294.66;5000985;28;45241;-78
2021/08/19 09:06:12;;;;;;;;;3.75;3.75;;;;;20.84;56.79;101289.53;5000932;28;46210;-78
2021/08/19 09:08:49;;;;;;;;;4.25;3.75;;;;;20.86;56.17;101296.56;5000182;28;45328;-77
2021/08/19 09:11:14;;;;;;;;;4.00;4.00;;;;;20.90;56.57;101297.25;5001390;28;45298;-78
2021/08/19 09:13:39;;;;;;;;;5.25;5.00;;;;;20.90;56.77;101303.56;5001031;28;45351;-77
2021/08/19 09:16:19;;;;;;;;;3.75;3.75;;;;;20.88;56.49;101296.47;5000794;28;52248;-77
2021/08/19 09:18:45;;;;;;;;;4.50;4.25;;;;;20.86;56.14;101293.00;5000864;28;45401;-77
2021/08/19 09:21:23;;;;;;;;;4.75;4.75;;;;;20.89;56.38;101298.22;5001128;28;45415;-77
2021/08/19 09:24:25;;;;;;;;;5.00;3.25;;;;;20.88;55.94;101299.19;5000966;28;45292;-78
2021/08/19 09:26:52;;;;;;;;;3.25;3.00;;;;;20.89;56.17;101309.94;4959608;28;45397;-78
2021/08/19 09:29:30;;;;;;;;;3.25;3.00;;;;;20.87;56.26;101300.19;4992826;28;45719;-77
2021/08/19 09:32:11;;;;;;;;;3.50;3.50;;;;;20.85;56.29;101294.00;5001009;28;45324;-77
2021/08/19 09:34:39;;;;;;;;;4.00;4.00;;;;;20.86;55.98;101293.84;5000281;28;45169;-77
2021/08/19 09:37:08;;;;;;;;;4.00;4.00;;;;;20.87;55.94;101303.75;5000665;28;46370;-77
2021/08/19 09:39:45;;;;;;;;;4.00;4.00;;;;;20.87;55.95;101295.63;5000620;28;45473;-77
2021/08/19 09:42:11;;;;;;;;;4.00;4.00;;;;;20.89;55.74;101300.94;5000829;28;45229;-77
2021/08/19 09:44:39;;;;;;;;;3.75;3.75;;;;;20.89;55.46;101298.22;5000781;28;45249;-77
2021/08/19 09:47:06;;;;;;;;;3.50;2.75;;;;;20.86;55.90;101293.00;5000437;28;46245;-77
2021/08/19 09:49:37;;;;;;;;;4.50;4.50;;;;;20.85;56.18;101303.00;5000361;28;45331;-77
2021/08/19 09:52:11;;;;;;;;;3.00;3.00;;;;;20.83;55.78;101293.19;5000598;28;45358;-77
2021/08/19 09:54:40;;;;;;;;;4.00;3.00;;;;;20.81;55.84;101295.16;5000613;28;45170;-77
2021/08/19 09:57:06;;;;;;;;;4.75;4.00;;;;;20.77;55.83;101293.63;5000247;28;46244;-77
2021/08/19 09:59:38;;;;;;;;;3.00;3.00;;;;;20.77;56.47;101290.91;5000664;28;45416;-77
2021/08/19 10:02:06;;;;;;;;;4.50;4.00;;;;;20.73;56.29;101288.41;5000325;28;45300;-77
2021/08/19 10:04:32;;;;;;;;;3.00;3.00;;;;;20.79;56.64;101292.53;5000000;28;45315;-77
2021/08/19 10:06:58;;;;;;;;;3.25;2.25;;;;;20.80;56.68;101287.97;4999969;28;46951;-77
2021/08/19 10:09:24;;;;;;;;;3.25;3.25;;;;;20.80;56.49;101283.44;5000450;28;45264;-78
2021/08/19 10:11:51;;;;;;;;;3.25;3.25;;;;;20.82;56.42;101286.06;5000303;28;45459;-77
2021/08/19 10:14:35;;;;;;;;;2.00;2.00;;;;;20.83;55.87;101287.78;5000410;28;45245;-77
2021/08/19 10:17:00;;;;;;;;;3.00;3.00;;;;;20.85;56.50;101291.28;5000302;28;45315;-77
2021/08/19 10:19:36;;;;;;;;;4.25;3.00;;;;;20.84;56.56;101284.97;4999746;28;45336;-77
2021/08/19 10:22:13;;;;;;;;;6.25;4.75;;;;;20.82;56.40;101289.63;5000254;28;45372;-77
2021/08/19 10:24:42;;;;;;;;;3.50;3.00;;;;;20.81;55.83;101285.16;5000168;28;45260;-77
2021/08/19 10:27:19;;;;;;;;;3.25;3.25;;;;;20.80;56.33;101285.25;4999805;28;46495;-77
2021/08/19 10:29:53;;;;;;;;;2.00;2.00;;;;;20.80;55.81;101287.97;5000005;28;45423;-77
2021/08/19 10:32:30;;;;;;;;;2.25;2.25;;;;;20.79;56.10;101283.53;5000202;28;45434;-77
2021/08/19 10:34:55;;;;;;;;;3.00;2.00;;;;;20.79;55.90;101280.81;4999670;28;45221;-78
2021/08/19 10:37:21;;;;;;;;;3.00;3.00;;;;;20.79;56.18;101283.53;4999818;28;45288;-76
2021/08/19 10:39:46;;;;;;;;;1.00;1.00;;;;;20.80;55.97;101282.53;5000117;28;45446;-77
2021/08/19 10:42:28;;;;;;;;;3.50;3.00;;;;;20.82;56.10;101283.34;4999996;28;45449;-77
2021/08/19 10:44:54;;;;;;;;;2.75;2.75;;;;;20.81;56.38;101273.44;4999971;28;45158;-78
2021/08/19 10:47:35;;;;;;;;;4.75;3.00;;;;;20.85;55.95;101283.13;4999472;28;46281;-78
2021/08/19 10:50:21;;;;;;;;;2.75;2.25;;;;;20.85;55.43;101289.44;4999603;28;45386;-78
2021/08/19 10:52:50;;;;;;;;;3.25;2.75;;;;;20.87;55.90;101292.03;5000113;28;45281;-78
2021/08/19 10:55:17;;;;;;;;;3.75;2.75;;;;;20.85;56.28;101283.13;4999769;28;45528;-77
2021/08/19 10:57:50;;;;;;;;;3.00;3.00;;;;;20.81;56.19;101287.88;4999375;28;46987;-77
2021/08/19 11:00:16;;;;;;;;;1.00;1.00;;;;;20.80;56.44;101286.16;4999698;28;45442;-77
2021/08/19 11:02:49;;;;;;;;;3.25;3.25;;;;;20.82;56.42;101297.75;4999404;28;45371;-77
2021/08/19 11:05:20;;;;;;;;;4.25;4.25;;;;;20.82;56.06;101288.75;4999566;28;45159;-78
2021/08/19 11:07:54;;;;;;;;;3.00;3.00;;;;;20.78;55.76;101276.38;4999670;28;46410;-77
2021/08/19 11:10:26;;;;;;;;;2.50;2.25;;;;;20.83;55.92;101282.34;4999555;28;45550;-77
2021/08/19 11:12:51;;;;;;;;;3.00;2.00;;;;;20.82;56.25;101286.06;4999721;28;45286;-77
2021/08/19 11:15:19;;;;;;;;;2.50;2.25;;;;;20.81;56.24;101296.00;4999379;28;45466;-79
2021/08/19 11:17:52;;;;;;;;;3.00;3.00;;;;;20.80;55.74;101283.44;4999079;28;45923;-78
2021/08/19 11:20:21;;;;;;;;;2.75;2.75;;;;;20.81;55.65;101289.72;4999314;28;45414;-77
2021/08/19 11:23:18;;;;;;;;;3.50;3.00;;;;;20.79;55.66;101280.81;4999466;28;45473;-77
2021/08/19 11:25:46;;;;;;;;;5.25;4.00;;;;;20.72;56.17;101267.66;4999074;28;45383;-77